sensor_id;sensor_type;location;lat;lon;timestamp;P1;durP1;ratioP1;P2;durP2;ratioP2
19329;SDS011;9799;48.214;16.388;2023-05-07T00:02:22;6.00;;;3.77;;
19329;SDS011;9799;48.214;16.388;2023-05-07T00:05:44;3.40;;;2.93;;
19329;SDS011;9799;48.214;16.388;2023-05-07T00:09:07;2.73;;;2.53;;
19329;SDS011;9799;48.214;16.388;2023-05-07T00:12:28;3.80;;;3.50;;
19329;SDS011;9799;48.214;16.388;2023-05-07T00:15:50;6.20;;;2.60;;
19329;SDS011;9799;48.214;16.388;2023-05-07T00:19:12;5.10;;;2.53;;
19329;SDS011;9799;48.214;16.388;2023-05-07T00:22:33;3.47;;;2.83;;
19329;SDS011;9799;48.214;16.388;2023-05-07T00:25:55;5.60;;;3.00;;
19329;SDS011;9799;48.214;16.388;2023-05-07T00:29:16;3.17;;;2.47;;
19329;SDS011;9799;48.214;16.388;2023-05-07T00:32:38;6.27;;;2.97;;
19329;SDS011;9799;48.214;16.388;2023-05-07T00:35:59;4.43;;;2.50;;
19329;SDS011;9799;48.214;16.388;2023-05-07T00:39:21;3.30;;;2.57;;
19329;SDS011;9799;48.214;16.388;2023-05-07T00:42:43;5.28;;;3.33;;
19329;SDS011;9799;48.214;16.388;2023-05-07T00:46:06;5.50;;;3.20;;
19329;SDS011;9799;48.214;16.388;2023-05-07T00:49:30;3.30;;;3.00;;
19329;SDS011;9799;48.214;16.388;2023-05-07T00:52:58;5.53;;;3.53;;
19329;SDS011;9799;48.214;16.388;2023-05-07T00:56:20;3.83;;;3.43;;
19329;SDS011;9799;48.214;16.388;2023-05-07T00:59:43;3.67;;;3.37;;
19329;SDS011;9799;48.214;16.388;2023-05-07T01:03:04;3.47;;;3.17;;
19329;SDS011;9799;48.214;16.388;2023-05-07T01:06:26;3.60;;;3.30;;
19329;SDS011;9799;48.214;16.388;2023-05-07T01:09:49;3.57;;;3.27;;
19329;SDS011;9799;48.214;16.388;2023-05-07T01:13:10;4.63;;;3.50;;
19329;SDS011;9799;48.214;16.388;2023-05-07T01:16:34;5.27;;;3.67;;
19329;SDS011;9799;48.214;16.388;2023-05-07T01:19:56;4.37;;;3.73;;
19329;SDS011;9799;48.214;16.388;2023-05-07T01:23:19;10.97;;;4.67;;
19329;SDS011;9799;48.214;16.388;2023-05-07T01:26:41;4.47;;;4.07;;
19329;SDS011;9799;48.214;16.388;2023-05-07T01:30:03;8.80;;;3.97;;
19329;SDS011;9799;48.214;16.388;2023-05-07T01:33:24;6.37;;;4.07;;
19329;SDS011;9799;48.214;16.388;2023-05-07T01:36:48;6.57;;;4.60;;
19329;SDS011;9799;48.214;16.388;2023-05-07T01:40:11;4.67;;;4.17;;
19329;SDS011;9799;48.214;16.388;2023-05-07T01:43:32;4.63;;;4.13;;
19329;SDS011;9799;48.214;16.388;2023-05-07T01:46:54;4.67;;;4.27;;
19329;SDS011;9799;48.214;16.388;2023-05-07T01:50:16;5.43;;;4.40;;
19329;SDS011;9799;48.214;16.388;2023-05-07T01:53:39;5.00;;;4.43;;
19329;SDS011;9799;48.214;16.388;2023-05-07T01:57:04;4.87;;;4.40;;
19329;SDS011;9799;48.214;16.388;2023-05-07T02:00:25;4.80;;;4.40;;
19329;SDS011;9799;48.214;16.388;2023-05-07T02:03:46;5.90;;;4.70;;
19329;SDS011;9799;48.214;16.388;2023-05-07T02:07:08;4.73;;;4.23;;
19329;SDS011;9799;48.214;16.388;2023-05-07T02:10:29;6.67;;;4.17;;
19329;SDS011;9799;48.214;16.388;2023-05-07T02:13:52;4.40;;;4.00;;
19329;SDS011;9799;48.214;16.388;2023-05-07T02:17:13;4.67;;;3.80;;
19329;SDS011;9799;48.214;16.388;2023-05-07T02:20:34;3.87;;;3.40;;
19329;SDS011;9799;48.214;16.388;2023-05-07T02:23:55;3.87;;;3.57;;
19329;SDS011;9799;48.214;16.388;2023-05-07T02:27:17;4.00;;;3.60;;
19329;SDS011;9799;48.214;16.388;2023-05-07T02:30:39;3.90;;;3.60;;
19329;SDS011;9799;48.214;16.388;2023-05-07T02:34:01;3.93;;;3.53;;
19329;SDS011;9799;48.214;16.388;2023-05-07T02:37:22;5.03;;;3.73;;
19329;SDS011;9799;48.214;16.388;2023-05-07T02:40:43;4.87;;;3.77;;
19329;SDS011;9799;48.214;16.388;2023-05-07T02:44:04;4.43;;;4.10;;
19329;SDS011;9799;48.214;16.388;2023-05-07T02:47:27;6.87;;;4.17;;
19329;SDS011;9799;48.214;16.388;2023-05-07T02:50:48;8.17;;;4.83;;
19329;SDS011;9799;48.214;16.388;2023-05-07T02:54:09;5.33;;;4.83;;
19329;SDS011;9799;48.214;16.388;2023-05-07T02:57:30;5.80;;;5.20;;
19329;SDS011;9799;48.214;16.388;2023-05-07T03:00:51;7.70;;;6.30;;
19329;SDS011;9799;48.214;16.388;2023-05-07T03:04:15;6.60;;;5.97;;
19329;SDS011;9799;48.214;16.388;2023-05-07T03:07:36;7.43;;;5.33;;
19329;SDS011;9799;48.214;16.388;2023-05-07T03:10:57;6.63;;;6.03;;
19329;SDS011;9799;48.214;16.388;2023-05-07T03:14:19;7.73;;;6.30;;
19329;SDS011;9799;48.214;16.388;2023-05-07T03:17:40;12.30;;;6.10;;
19329;SDS011;9799;48.214;16.388;2023-05-07T03:21:03;9.57;;;6.83;;
19329;SDS011;9799;48.214;16.388;2023-05-07T03:24:24;6.40;;;5.80;;
19329;SDS011;9799;48.214;16.388;2023-05-07T03:27:45;7.50;;;6.70;;
19329;SDS011;9799;48.214;16.388;2023-05-07T03:31:06;7.57;;;6.83;;
19329;SDS011;9799;48.214;16.388;2023-05-07T03:34:27;8.20;;;6.97;;
19329;SDS011;9799;48.214;16.388;2023-05-07T03:37:50;9.37;;;7.63;;
19329;SDS011;9799;48.214;16.388;2023-05-07T03:41:11;7.87;;;6.67;;
19329;SDS011;9799;48.214;16.388;2023-05-07T03:44:32;8.30;;;7.50;;
19329;SDS011;9799;48.214;16.388;2023-05-07T03:47:55;10.57;;;9.13;;
19329;SDS011;9799;48.214;16.388;2023-05-07T03:51:16;9.30;;;8.23;;
19329;SDS011;9799;48.214;16.388;2023-05-07T03:54:39;8.43;;;7.57;;
19329;SDS011;9799;48.214;16.388;2023-05-07T03:58:00;7.90;;;7.10;;
19329;SDS011;9799;48.214;16.388;2023-05-07T04:01:21;10.27;;;8.23;;
19329;SDS011;9799;48.214;16.388;2023-05-07T04:04:42;9.57;;;8.50;;
19329;SDS011;9799;48.214;16.388;2023-05-07T04:08:04;10.03;;;8.90;;
19329;SDS011;9799;48.214;16.388;2023-05-07T04:11:27;10.87;;;9.27;;
19329;SDS011;9799;48.214;16.388;2023-05-07T04:14:48;11.73;;;7.93;;
19329;SDS011;9799;48.214;16.388;2023-05-07T04:18:09;11.27;;;9.50;;
19329;SDS011;9799;48.214;16.388;2023-05-07T04:21:30;13.10;;;10.40;;
19329;SDS011;9799;48.214;16.388;2023-05-07T04:24:51;10.10;;;8.83;;
19329;SDS011;9799;48.214;16.388;2023-05-07T04:28:14;12.43;;;10.00;;
19329;SDS011;9799;48.214;16.388;2023-05-07T04:31:35;12.30;;;10.70;;
19329;SDS011;9799;48.214;16.388;2023-05-07T04:34:57;14.70;;;13.00;;
19329;SDS011;9799;48.214;16.388;2023-05-07T04:38:18;15.30;;;13.70;;
19329;SDS011;9799;48.214;16.388;2023-05-07T04:41:39;14.20;;;12.53;;
19329;SDS011;9799;48.214;16.388;2023-05-07T04:45:01;15.40;;;13.83;;
19329;SDS011;9799;48.214;16.388;2023-05-07T04:48:24;15.13;;;13.63;;
19329;SDS011;9799;48.214;16.388;2023-05-07T04:51:45;17.97;;;14.67;;
19329;SDS011;9799;48.214;16.388;2023-05-07T04:55:07;16.07;;;14.37;;
19329;SDS011;9799;48.214;16.388;2023-05-07T04:58:28;18.17;;;15.70;;
19329;SDS011;9799;48.214;16.388;2023-05-07T05:01:52;18.67;;;15.40;;
19329;SDS011;9799;48.214;16.388;2023-05-07T05:05:13;26.50;;;17.20;;
19329;SDS011;9799;48.214;16.388;2023-05-07T05:08:34;18.40;;;16.40;;
19329;SDS011;9799;48.214;16.388;2023-05-07T05:11:55;21.73;;;17.87;;
19329;SDS011;9799;48.214;16.388;2023-05-07T05:15:17;22.93;;;18.57;;
19329;SDS011;9799;48.214;16.388;2023-05-07T05:18:39;22.50;;;19.77;;
19329;SDS011;9799;48.214;16.388;2023-05-07T05:22:01;24.30;;;19.97;;
19329;SDS011;9799;48.214;16.388;2023-05-07T05:25:23;22.80;;;19.07;;
19329;SDS011;9799;48.214;16.388;2023-05-07T05:28:44;24.20;;;20.47;;
19329;SDS011;9799;48.214;16.388;2023-05-07T05:32:05;23.70;;;20.07;;
19329;SDS011;9799;48.214;16.388;2023-05-07T05:35:29;22.67;;;19.80;;
19329;SDS011;9799;48.214;16.388;2023-05-07T05:38:51;20.90;;;18.37;;
19329;SDS011;9799;48.214;16.388;2023-05-07T05:42:12;22.63;;;18.27;;
19329;SDS011;9799;48.214;16.388;2023-05-07T05:45:33;27.23;;;18.80;;
19329;SDS011;9799;48.214;16.388;2023-05-07T05:48:55;22.43;;;19.40;;
19329;SDS011;9799;48.214;16.388;2023-05-07T05:52:17;21.87;;;18.73;;
19329;SDS011;9799;48.214;16.388;2023-05-07T05:55:39;23.07;;;18.97;;
19329;SDS011;9799;48.214;16.388;2023-05-07T05:59:00;23.07;;;19.97;;
19329;SDS011;9799;48.214;16.388;2023-05-07T06:02:21;23.70;;;19.43;;
19329;SDS011;9799;48.214;16.388;2023-05-07T06:05:42;22.50;;;19.50;;
19329;SDS011;9799;48.214;16.388;2023-05-07T06:09:05;23.47;;;19.07;;
19329;SDS011;9799;48.214;16.388;2023-05-07T06:12:26;22.77;;;19.53;;
19329;SDS011;9799;48.214;16.388;2023-05-07T06:15:48;24.67;;;20.63;;
19329;SDS011;9799;48.214;16.388;2023-05-07T06:19:09;22.77;;;20.30;;
19329;SDS011;9799;48.214;16.388;2023-05-07T06:22:30;29.37;;;21.63;;
19329;SDS011;9799;48.214;16.388;2023-05-07T06:25:53;26.40;;;20.40;;
19329;SDS011;9799;48.214;16.388;2023-05-07T06:29:14;23.63;;;20.03;;
19329;SDS011;9799;48.214;16.388;2023-05-07T06:32:36;23.13;;;19.53;;
19329;SDS011;9799;48.214;16.388;2023-05-07T06:35:57;29.43;;;21.80;;
19329;SDS011;9799;48.214;16.388;2023-05-07T06:39:18;29.40;;;20.67;;
19329;SDS011;9799;48.214;16.388;2023-05-07T06:42:41;26.13;;;20.57;;
19329;SDS011;9799;48.214;16.388;2023-05-07T06:46:02;22.77;;;19.87;;
19329;SDS011;9799;48.214;16.388;2023-05-07T06:49:23;23.83;;;20.73;;
19329;SDS011;9799;48.214;16.388;2023-05-07T06:52:44;25.00;;;18.97;;
19329;SDS011;9799;48.214;16.388;2023-05-07T06:56:06;23.37;;;20.00;;
19329;SDS011;9799;48.214;16.388;2023-05-07T06:59:28;23.93;;;19.93;;
19329;SDS011;9799;48.214;16.388;2023-05-07T07:02:49;23.00;;;19.90;;
19329;SDS011;9799;48.214;16.388;2023-05-07T07:06:10;25.93;;;21.37;;
19329;SDS011;9799;48.214;16.388;2023-05-07T07:09:32;24.33;;;20.17;;
19329;SDS011;9799;48.214;16.388;2023-05-07T07:12:53;22.83;;;20.03;;
19329;SDS011;9799;48.214;16.388;2023-05-07T07:16:16;24.53;;;20.07;;
19329;SDS011;9799;48.214;16.388;2023-05-07T07:19:37;22.73;;;19.37;;
19329;SDS011;9799;48.214;16.388;2023-05-07T07:22:59;23.13;;;20.13;;
19329;SDS011;9799;48.214;16.388;2023-05-07T07:26:20;22.07;;;19.73;;
19329;SDS011;9799;48.214;16.388;2023-05-07T07:29:41;22.47;;;20.07;;
19329;SDS011;9799;48.214;16.388;2023-05-07T07:33:03;20.93;;;18.50;;
19329;SDS011;9799;48.214;16.388;2023-05-07T07:36:25;24.67;;;20.27;;
19329;SDS011;9799;48.214;16.388;2023-05-07T07:39:46;24.33;;;20.63;;
19329;SDS011;9799;48.214;16.388;2023-05-07T07:43:07;23.97;;;19.73;;
19329;SDS011;9799;48.214;16.388;2023-05-07T07:46:29;23.70;;;19.80;;
19329;SDS011;9799;48.214;16.388;2023-05-07T07:49:51;29.23;;;20.13;;
19329;SDS011;9799;48.214;16.388;2023-05-07T07:53:12;21.33;;;18.50;;
19329;SDS011;9799;48.214;16.388;2023-05-07T07:56:34;22.40;;;19.70;;
19329;SDS011;9799;48.214;16.388;2023-05-07T07:59:55;23.53;;;19.27;;
19329;SDS011;9799;48.214;16.388;2023-05-07T08:03:16;26.93;;;19.73;;
19329;SDS011;9799;48.214;16.388;2023-05-07T08:06:40;22.97;;;18.23;;
19329;SDS011;9799;48.214;16.388;2023-05-07T08:10:01;23.60;;;19.23;;
19329;SDS011;9799;48.214;16.388;2023-05-07T08:13:23;23.70;;;19.90;;
19329;SDS011;9799;48.214;16.388;2023-05-07T08:16:44;23.67;;;19.50;;
19329;SDS011;9799;48.214;16.388;2023-05-07T08:20:06;23.03;;;19.93;;
19329;SDS011;9799;48.214;16.388;2023-05-07T08:23:29;24.37;;;18.87;;
19329;SDS011;9799;48.214;16.388;2023-05-07T08:26:51;20.77;;;17.87;;
19329;SDS011;9799;48.214;16.388;2023-05-07T08:30:12;18.83;;;16.87;;
19329;SDS011;9799;48.214;16.388;2023-05-07T08:33:34;24.43;;;19.33;;
19329;SDS011;9799;48.214;16.388;2023-05-07T08:36:56;21.47;;;16.87;;
19329;SDS011;9799;48.214;16.388;2023-05-07T08:40:19;22.23;;;18.13;;
19329;SDS011;9799;48.214;16.388;2023-05-07T08:43:41;20.33;;;18.07;;
19329;SDS011;9799;48.214;16.388;2023-05-07T08:47:06;20.53;;;18.07;;
19329;SDS011;9799;48.214;16.388;2023-05-07T08:50:27;19.30;;;16.53;;
19329;SDS011;9799;48.214;16.388;2023-05-07T08:53:49;18.20;;;15.27;;
19329;SDS011;9799;48.214;16.388;2023-05-07T08:57:12;19.02;;;15.40;;
19329;SDS011;9799;48.214;16.388;2023-05-07T09:00:33;16.13;;;14.43;;
19329;SDS011;9799;48.214;16.388;2023-05-07T09:03:57;17.70;;;15.90;;
19329;SDS011;9799;48.214;16.388;2023-05-07T09:07:18;16.60;;;14.53;;
19329;SDS011;9799;48.214;16.388;2023-05-07T09:10:40;17.97;;;15.23;;
19329;SDS011;9799;48.214;16.388;2023-05-07T09:14:02;16.43;;;14.50;;
19329;SDS011;9799;48.214;16.388;2023-05-07T09:17:23;18.17;;;14.97;;
19329;SDS011;9799;48.214;16.388;2023-05-07T09:20:44;17.95;;;14.57;;
19329;SDS011;9799;48.214;16.388;2023-05-07T09:24:06;15.05;;;13.55;;
19329;SDS011;9799;48.214;16.388;2023-05-07T09:27:27;14.33;;;12.87;;
19329;SDS011;9799;48.214;16.388;2023-05-07T09:30:50;16.08;;;13.60;;
19329;SDS011;9799;48.214;16.388;2023-05-07T09:34:11;15.00;;;12.77;;
19329;SDS011;9799;48.214;16.388;2023-05-07T09:37:32;15.17;;;12.57;;
19329;SDS011;9799;48.214;16.388;2023-05-07T09:41:01;19.23;;;13.60;;
19329;SDS011;9799;48.214;16.388;2023-05-07T09:44:23;15.35;;;13.60;;
19329;SDS011;9799;48.214;16.388;2023-05-07T09:47:47;16.05;;;13.73;;
19329;SDS011;9799;48.214;16.388;2023-05-07T09:51:12;17.45;;;14.38;;
19329;SDS011;9799;48.214;16.388;2023-05-07T09:54:42;15.43;;;12.80;;
19329;SDS011;9799;48.214;16.388;2023-05-07T09:58:05;15.15;;;13.15;;
19329;SDS011;9799;48.214;16.388;2023-05-07T10:01:29;16.85;;;13.98;;
19329;SDS011;9799;48.214;16.388;2023-05-07T10:04:53;15.02;;;13.45;;
19329;SDS011;9799;48.214;16.388;2023-05-07T10:08:15;15.65;;;13.65;;
19329;SDS011;9799;48.214;16.388;2023-05-07T10:11:39;13.95;;;12.48;;
19329;SDS011;9799;48.214;16.388;2023-05-07T10:15:01;15.07;;;13.55;;
19329;SDS011;9799;48.214;16.388;2023-05-07T10:18:22;14.00;;;12.38;;
19329;SDS011;9799;48.214;16.388;2023-05-07T10:21:51;14.95;;;13.45;;
19329;SDS011;9799;48.214;16.388;2023-05-07T10:25:17;15.30;;;11.98;;
19329;SDS011;9799;48.214;16.388;2023-05-07T10:28:43;16.45;;;13.50;;
19329;SDS011;9799;48.214;16.388;2023-05-07T10:32:14;14.82;;;13.27;;
19329;SDS011;9799;48.214;16.388;2023-05-07T10:35:55;16.08;;;12.57;;
19329;SDS011;9799;48.214;16.388;2023-05-07T10:39:20;14.80;;;13.07;;
19329;SDS011;9799;48.214;16.388;2023-05-07T10:42:52;15.05;;;13.55;;
19329;SDS011;9799;48.214;16.388;2023-05-07T10:46:15;15.82;;;13.98;;
19329;SDS011;9799;48.214;16.388;2023-05-07T10:50:19;15.75;;;13.95;;
19329;SDS011;9799;48.214;16.388;2023-05-07T10:53:43;14.50;;;13.10;;
19329;SDS011;9799;48.214;16.388;2023-05-07T11:00:57;14.38;;;12.88;;
19329;SDS011;9799;48.214;16.388;2023-05-07T11:04:19;14.30;;;12.80;;
19329;SDS011;9799;48.214;16.388;2023-05-07T11:07:50;14.68;;;12.05;;
19329;SDS011;9799;48.214;16.388;2023-05-07T11:11:15;15.00;;;13.45;;
19329;SDS011;9799;48.214;16.388;2023-05-07T11:14:44;15.68;;;13.90;;
19329;SDS011;9799;48.214;16.388;2023-05-07T11:18:06;15.85;;;12.52;;
19329;SDS011;9799;48.214;16.388;2023-05-07T11:21:32;14.85;;;13.07;;
19329;SDS011;9799;48.214;16.388;2023-05-07T11:24:57;15.18;;;12.88;;
19329;SDS011;9799;48.214;16.388;2023-05-07T11:28:21;13.52;;;11.75;;
19329;SDS011;9799;48.214;16.388;2023-05-07T11:31:43;12.60;;;11.13;;
19329;SDS011;9799;48.214;16.388;2023-05-07T11:35:08;12.38;;;11.07;;
19329;SDS011;9799;48.214;16.388;2023-05-07T11:38:30;13.07;;;11.70;;
19329;SDS011;9799;48.214;16.388;2023-05-07T11:41:55;13.02;;;11.68;;
19329;SDS011;9799;48.214;16.388;2023-05-07T11:45:22;15.00;;;12.60;;
19329;SDS011;9799;48.214;16.388;2023-05-07T11:48:47;12.10;;;10.80;;
19329;SDS011;9799;48.214;16.388;2023-05-07T11:52:08;12.70;;;11.07;;
19329;SDS011;9799;48.214;16.388;2023-05-07T11:55:29;11.10;;;10.00;;
19329;SDS011;9799;48.214;16.388;2023-05-07T11:58:50;14.63;;;11.10;;
19329;SDS011;9799;48.214;16.388;2023-05-07T12:02:13;11.73;;;10.20;;
19329;SDS011;9799;48.214;16.388;2023-05-07T12:05:36;12.07;;;10.88;;
19329;SDS011;9799;48.214;16.388;2023-05-07T12:09:01;11.15;;;10.07;;
19329;SDS011;9799;48.214;16.388;2023-05-07T12:12:23;11.15;;;9.95;;
19329;SDS011;9799;48.214;16.388;2023-05-07T12:15:46;12.50;;;10.95;;
19329;SDS011;9799;48.214;16.388;2023-05-07T12:19:11;11.27;;;10.18;;
19329;SDS011;9799;48.214;16.388;2023-05-07T12:22:35;11.25;;;10.00;;
19329;SDS011;9799;48.214;16.388;2023-05-07T12:25:56;11.20;;;10.10;;
19329;SDS011;9799;48.214;16.388;2023-05-07T12:29:20;11.48;;;10.27;;
19329;SDS011;9799;48.214;16.388;2023-05-07T12:32:42;12.23;;;10.60;;
19329;SDS011;9799;48.214;16.388;2023-05-07T12:36:06;9.85;;;8.95;;
19329;SDS011;9799;48.214;16.388;2023-05-07T12:39:29;10.93;;;9.82;;
19329;SDS011;9799;48.214;16.388;2023-05-07T12:42:52;11.77;;;9.65;;
19329;SDS011;9799;48.214;16.388;2023-05-07T12:46:14;12.90;;;9.55;;
19329;SDS011;9799;48.214;16.388;2023-05-07T12:49:37;11.30;;;9.82;;
19329;SDS011;9799;48.214;16.388;2023-05-07T12:52:59;9.77;;;8.88;;
19329;SDS011;9799;48.214;16.388;2023-05-07T12:56:24;9.23;;;8.25;;
19329;SDS011;9799;48.214;16.388;2023-05-07T12:59:45;10.65;;;8.98;;
19329;SDS011;9799;48.214;16.388;2023-05-07T13:03:06;9.15;;;7.82;;
19329;SDS011;9799;48.214;16.388;2023-05-07T13:06:27;10.10;;;9.07;;
19329;SDS011;9799;48.214;16.388;2023-05-07T13:09:49;9.38;;;8.48;;
19329;SDS011;9799;48.214;16.388;2023-05-07T13:13:11;11.77;;;8.02;;
19329;SDS011;9799;48.214;16.388;2023-05-07T13:16:32;8.68;;;7.78;;
19329;SDS011;9799;48.214;16.388;2023-05-07T13:19:54;8.80;;;8.00;;
19329;SDS011;9799;48.214;16.388;2023-05-07T13:23:15;8.85;;;7.95;;
19329;SDS011;9799;48.214;16.388;2023-05-07T13:26:36;8.80;;;7.90;;
19329;SDS011;9799;48.214;16.388;2023-05-07T13:29:59;8.80;;;7.90;;
19329;SDS011;9799;48.214;16.388;2023-05-07T13:33:20;8.10;;;7.30;;
19329;SDS011;9799;48.214;16.388;2023-05-07T13:36:41;9.50;;;8.38;;
19329;SDS011;9799;48.214;16.388;2023-05-07T13:40:02;8.98;;;7.95;;
19329;SDS011;9799;48.214;16.388;2023-05-07T13:43:25;8.43;;;7.63;;
19329;SDS011;9799;48.214;16.388;2023-05-07T13:46:47;9.30;;;8.10;;
19329;SDS011;9799;48.214;16.388;2023-05-07T13:50:09;8.77;;;7.93;;
19329;SDS011;9799;48.214;16.388;2023-05-07T13:53:32;8.35;;;7.50;;
19329;SDS011;9799;48.214;16.388;2023-05-07T13:56:54;8.88;;;8.07;;
19329;SDS011;9799;48.214;16.388;2023-05-07T14:00:15;10.27;;;7.78;;
19329;SDS011;9799;48.214;16.388;2023-05-07T14:03:38;9.00;;;8.05;;
19329;SDS011;9799;48.214;16.388;2023-05-07T14:06:59;8.20;;;7.25;;
19329;SDS011;9799;48.214;16.388;2023-05-07T14:10:21;7.80;;;6.88;;
19329;SDS011;9799;48.214;16.388;2023-05-07T14:13:42;7.53;;;6.78;;
19329;SDS011;9799;48.214;16.388;2023-05-07T14:17:03;8.05;;;7.25;;
19329;SDS011;9799;48.214;16.388;2023-05-07T14:20:25;7.80;;;6.50;;
19329;SDS011;9799;48.214;16.388;2023-05-07T14:23:47;7.82;;;6.68;;
19329;SDS011;9799;48.214;16.388;2023-05-07T14:27:08;7.85;;;7.03;;
19329;SDS011;9799;48.214;16.388;2023-05-07T14:30:29;7.72;;;6.60;;
19329;SDS011;9799;48.214;16.388;2023-05-07T14:33:51;6.60;;;6.00;;
19329;SDS011;9799;48.214;16.388;2023-05-07T14:37:14;6.47;;;5.35;;
19329;SDS011;9799;48.214;16.388;2023-05-07T14:40:35;6.45;;;5.85;;
19329;SDS011;9799;48.214;16.388;2023-05-07T14:43:56;7.03;;;5.65;;
19329;SDS011;9799;48.214;16.388;2023-05-07T14:47:18;8.35;;;6.30;;
19329;SDS011;9799;48.214;16.388;2023-05-07T14:50:39;7.82;;;4.93;;
19329;SDS011;9799;48.214;16.388;2023-05-07T14:54:02;5.88;;;5.32;;
19329;SDS011;9799;48.214;16.388;2023-05-07T14:57:23;6.57;;;5.45;;
19329;SDS011;9799;48.214;16.388;2023-05-07T15:00:44;5.20;;;4.70;;
19329;SDS011;9799;48.214;16.388;2023-05-07T15:04:05;5.93;;;5.43;;
19329;SDS011;9799;48.214;16.388;2023-05-07T15:07:27;8.45;;;5.45;;
19329;SDS011;9799;48.214;16.388;2023-05-07T15:10:49;5.82;;;5.25;;
19329;SDS011;9799;48.214;16.388;2023-05-07T15:14:10;5.10;;;4.60;;
19329;SDS011;9799;48.214;16.388;2023-05-07T15:17:31;4.95;;;4.50;;
19329;SDS011;9799;48.214;16.388;2023-05-07T15:20:53;5.10;;;4.60;;
19329;SDS011;9799;48.214;16.388;2023-05-07T15:24:15;5.85;;;5.22;;
19329;SDS011;9799;48.214;16.388;2023-05-07T15:27:38;5.05;;;4.13;;
19329;SDS011;9799;48.214;16.388;2023-05-07T15:30:59;6.28;;;5.10;;
19329;SDS011;9799;48.214;16.388;2023-05-07T15:34:21;4.82;;;4.18;;
19329;SDS011;9799;48.214;16.388;2023-05-07T15:37:43;5.03;;;4.63;;
19329;SDS011;9799;48.214;16.388;2023-05-07T15:41:04;5.43;;;4.78;;
19329;SDS011;9799;48.214;16.388;2023-05-07T15:44:26;5.38;;;4.88;;
19329;SDS011;9799;48.214;16.388;2023-05-07T15:47:49;5.00;;;4.53;;
19329;SDS011;9799;48.214;16.388;2023-05-07T15:51:10;5.30;;;4.80;;
19329;SDS011;9799;48.214;16.388;2023-05-07T15:54:32;5.28;;;4.78;;
19329;SDS011;9799;48.214;16.388;2023-05-07T15:57:53;8.75;;;4.70;;
19329;SDS011;9799;48.214;16.388;2023-05-07T16:01:16;8.18;;;4.78;;
19329;SDS011;9799;48.214;16.388;2023-05-07T16:04:37;4.72;;;4.32;;
19329;SDS011;9799;48.214;16.388;2023-05-07T16:07:59;6.88;;;4.78;;
19329;SDS011;9799;48.214;16.388;2023-05-07T16:11:20;6.05;;;5.43;;
19329;SDS011;9799;48.214;16.388;2023-05-07T16:14:41;5.45;;;5.00;;
19329;SDS011;9799;48.214;16.388;2023-05-07T16:18:04;4.50;;;4.10;;
19329;SDS011;9799;48.214;16.388;2023-05-07T16:21:25;5.68;;;4.50;;
19329;SDS011;9799;48.214;16.388;2023-05-07T16:24:47;5.40;;;4.90;;
19329;SDS011;9799;48.214;16.388;2023-05-07T16:28:08;5.28;;;4.80;;
19329;SDS011;9799;48.214;16.388;2023-05-07T16:31:29;5.20;;;4.75;;
19329;SDS011;9799;48.214;16.388;2023-05-07T16:34:52;7.82;;;7.03;;
19329;SDS011;9799;48.214;16.388;2023-05-07T16:38:13;7.18;;;6.28;;
19329;SDS011;9799;48.214;16.388;2023-05-07T16:41:34;7.88;;;7.00;;
19329;SDS011;9799;48.214;16.388;2023-05-07T16:44:55;7.30;;;6.68;;
19329;SDS011;9799;48.214;16.388;2023-05-07T16:48:17;6.85;;;6.25;;
19329;SDS011;9799;48.214;16.388;2023-05-07T16:51:39;7.30;;;6.63;;
19329;SDS011;9799;48.214;16.388;2023-05-07T16:55:01;7.22;;;6.53;;
19329;SDS011;9799;48.214;16.388;2023-05-07T16:58:23;7.43;;;6.72;;
19329;SDS011;9799;48.214;16.388;2023-05-07T17:01:45;7.63;;;6.88;;
19329;SDS011;9799;48.214;16.388;2023-05-07T17:05:07;6.93;;;6.32;;
19329;SDS011;9799;48.214;16.388;2023-05-07T17:08:30;7.68;;;6.97;;
19329;SDS011;9799;48.214;16.388;2023-05-07T17:11:51;6.63;;;6.03;;
19329;SDS011;9799;48.214;16.388;2023-05-07T17:15:12;7.50;;;6.80;;
19329;SDS011;9799;48.214;16.388;2023-05-07T17:18:33;7.80;;;7.07;;
19329;SDS011;9799;48.214;16.388;2023-05-07T17:21:55;8.80;;;7.60;;
19329;SDS011;9799;48.214;16.388;2023-05-07T17:25:17;7.73;;;7.03;;
19329;SDS011;9799;48.214;16.388;2023-05-07T17:28:39;7.07;;;6.47;;
19329;SDS011;9799;48.214;16.388;2023-05-07T17:32:00;7.30;;;6.60;;
19329;SDS011;9799;48.214;16.388;2023-05-07T17:35:21;9.15;;;6.65;;
19329;SDS011;9799;48.214;16.388;2023-05-07T17:38:43;6.77;;;6.17;;
19329;SDS011;9799;48.214;16.388;2023-05-07T17:42:05;6.73;;;6.13;;
19329;SDS011;9799;48.214;16.388;2023-05-07T17:45:26;6.97;;;6.37;;
19329;SDS011;9799;48.214;16.388;2023-05-07T17:48:48;6.90;;;6.27;;
19329;SDS011;9799;48.214;16.388;2023-05-07T17:52:10;7.00;;;6.30;;
19329;SDS011;9799;48.214;16.388;2023-05-07T17:55:31;7.03;;;6.40;;
19329;SDS011;9799;48.214;16.388;2023-05-07T17:58:54;7.10;;;6.40;;
19329;SDS011;9799;48.214;16.388;2023-05-07T18:02:15;7.60;;;6.90;;
19329;SDS011;9799;48.214;16.388;2023-05-07T18:05:36;7.60;;;6.80;;
19329;SDS011;9799;48.214;16.388;2023-05-07T18:08:58;7.47;;;6.73;;
19329;SDS011;9799;48.214;16.388;2023-05-07T18:12:19;6.83;;;6.23;;
19329;SDS011;9799;48.214;16.388;2023-05-07T18:15:42;7.00;;;6.40;;
19329;SDS011;9799;48.214;16.388;2023-05-07T18:19:05;6.80;;;6.13;;
19329;SDS011;9799;48.214;16.388;2023-05-07T18:22:26;7.40;;;6.70;;
19329;SDS011;9799;48.214;16.388;2023-05-07T18:25:49;7.90;;;5.83;;
19329;SDS011;9799;48.214;16.388;2023-05-07T18:29:10;7.37;;;6.20;;
19329;SDS011;9799;48.214;16.388;2023-05-07T18:32:33;6.60;;;6.00;;
19329;SDS011;9799;48.214;16.388;2023-05-07T18:35:54;7.90;;;5.67;;
19329;SDS011;9799;48.214;16.388;2023-05-07T18:39:15;6.70;;;6.10;;
19329;SDS011;9799;48.214;16.388;2023-05-07T18:42:36;7.33;;;6.63;;
19329;SDS011;9799;48.214;16.388;2023-05-07T18:45:57;7.40;;;6.57;;
19329;SDS011;9799;48.214;16.388;2023-05-07T18:49:20;7.23;;;6.63;;
19329;SDS011;9799;48.214;16.388;2023-05-07T18:52:41;8.17;;;7.37;;
19329;SDS011;9799;48.214;16.388;2023-05-07T18:56:03;9.40;;;7.80;;
19329;SDS011;9799;48.214;16.388;2023-05-07T18:59:26;8.93;;;8.07;;
19329;SDS011;9799;48.214;16.388;2023-05-07T19:02:48;10.63;;;8.53;;
19329;SDS011;9799;48.214;16.388;2023-05-07T19:06:11;9.37;;;8.47;;
19329;SDS011;9799;48.214;16.388;2023-05-07T19:09:33;9.30;;;8.30;;
19329;SDS011;9799;48.214;16.388;2023-05-07T19:12:54;8.27;;;7.47;;
19329;SDS011;9799;48.214;16.388;2023-05-07T19:16:16;7.73;;;7.03;;
19329;SDS011;9799;48.214;16.388;2023-05-07T19:19:37;8.07;;;7.27;;
19329;SDS011;9799;48.214;16.388;2023-05-07T19:23:00;8.50;;;7.60;;
19329;SDS011;9799;48.214;16.388;2023-05-07T19:26:21;8.60;;;7.77;;
19329;SDS011;9799;48.214;16.388;2023-05-07T19:29:43;11.23;;;8.93;;
19329;SDS011;9799;48.214;16.388;2023-05-07T19:33:05;11.33;;;9.23;;
19329;SDS011;9799;48.214;16.388;2023-05-07T19:36:27;9.77;;;8.83;;
19329;SDS011;9799;48.214;16.388;2023-05-07T19:39:51;10.60;;;9.53;;
19329;SDS011;9799;48.214;16.388;2023-05-07T19:43:14;10.87;;;9.77;;
19329;SDS011;9799;48.214;16.388;2023-05-07T19:46:35;11.40;;;10.10;;
19329;SDS011;9799;48.214;16.388;2023-05-07T19:49:58;11.10;;;9.90;;
19329;SDS011;9799;48.214;16.388;2023-05-07T19:53:20;10.73;;;9.63;;
19329;SDS011;9799;48.214;16.388;2023-05-07T19:56:42;12.17;;;10.87;;
19329;SDS011;9799;48.214;16.388;2023-05-07T20:00:04;12.70;;;10.70;;
19329;SDS011;9799;48.214;16.388;2023-05-07T20:03:26;12.70;;;11.40;;
19329;SDS011;9799;48.214;16.388;2023-05-07T20:06:48;11.73;;;10.53;;